createdAt,value
2022-09-24T07:19:38.382Z,98424.06
2022-09-24T07:22:50.637Z,98434.97
2022-09-24T07:26:00.770Z,98436.97
2022-09-24T07:29:10.926Z,98449.19
2022-09-24T07:32:21.839Z,98453.41
2022-09-24T07:35:35.129Z,98453.25
2022-09-24T07:38:46.620Z,98448.75
2022-09-24T07:41:56.646Z,98452.13
2022-09-24T07:45:07.203Z,98452.63
2022-09-24T07:48:17.400Z,98452.16
2022-09-24T07:51:30.502Z,98447.34
2022-09-24T07:54:40.678Z,98446.06
2022-09-24T07:57:51.936Z,98454.53
2022-09-24T08:01:02.140Z,98447.97
2022-09-24T08:04:12.343Z,98449.72
2022-09-24T08:07:23.920Z,98447.22
2022-09-24T08:10:34.036Z,98452.44
2022-09-24T08:13:45.204Z,98444.56
2022-09-24T08:16:55.298Z,98441.84
2022-09-24T08:20:05.920Z,98435.00
2022-09-24T08:23:17.467Z,98439.00
2022-09-24T08:26:27.604Z,98444.91
2022-09-24T08:29:37.544Z,98441.66
2022-09-24T08:32:48.843Z,98435.91
2022-09-24T08:36:00.499Z,98434.28
2022-09-24T08:39:13.732Z,98435.00
2022-09-24T08:42:36.495Z,98437.81
2022-09-24T08:46:04.100Z,98432.53
2022-09-24T08:49:20.329Z,98431.84
2022-09-24T08:52:39.439Z,98439.09
2022-09-24T08:59:00.584Z,98428.13
2022-09-24T09:02:22.040Z,98427.31
2022-09-24T09:05:50.538Z,98432.59
2022-09-24T09:09:12.448Z,98438.94
2022-09-24T09:12:27.113Z,98436.28
2022-09-24T09:15:44.232Z,98431.59
2022-09-24T09:19:01.807Z,98444.25
2022-09-24T09:22:15.593Z,98442.41
2022-09-24T09:29:03.145Z,98434.50
2022-09-24T09:32:30.799Z,98425.97
2022-09-24T09:39:32.156Z,98430.53
2022-09-24T09:42:42.889Z,98427.53
2022-09-24T09:46:03.201Z,98408.41
2022-09-24T09:49:19.105Z,98406.56
2022-09-24T09:52:31.507Z,98407.41
2022-09-24T09:55:41.533Z,98415.47
2022-09-24T09:58:55.827Z,98415.19
2022-09-24T10:02:11.869Z,98410.09
2022-09-24T10:05:28.759Z,98406.13
2022-09-24T10:08:38.832Z,98412.25
2022-09-24T10:11:49.207Z,98399.13
2022-09-24T10:15:02.066Z,98394.41
2022-09-24T10:18:15.788Z,98388.03
2022-09-24T10:21:34.535Z,98384.97
2022-09-24T10:24:45.635Z,98393.16
2022-09-24T10:28:18.648Z,98394.66
2022-09-24T10:31:32.698Z,98394.34
2022-09-24T10:34:42.767Z,98386.84
2022-09-24T10:37:56.083Z,98392.66
2022-09-24T10:41:16.135Z,98383.13
2022-09-24T10:44:33.522Z,98389.81
2022-09-24T10:47:52.414Z,98386.50
2022-09-24T10:51:13.344Z,98385.69
2022-09-24T10:54:37.968Z,98388.91
2022-09-24T10:57:59.313Z,98384.16
2022-09-24T11:01:19.380Z,98379.59
2022-09-24T11:04:44.211Z,98362.75
2022-09-24T11:08:06.748Z,98358.94
2022-09-24T11:11:31.352Z,98358.06
2022-09-24T11:14:58.085Z,98350.28
2022-09-24T11:18:27.306Z,98353.03
2022-09-24T11:21:52.300Z,98354.94
2022-09-24T11:25:25.478Z,98356.56
2022-09-24T11:28:54.179Z,98354.94
2022-09-24T11:32:16.579Z,98361.94
2022-09-24T11:35:46.303Z,98353.28
2022-09-24T11:39:12.524Z,98360.88
2022-09-24T11:42:26.163Z,98349.13
2022-09-24T11:45:48.251Z,98352.06
2022-09-24T11:49:14.837Z,98347.72
2022-09-24T11:52:33.347Z,98348.53
2022-09-24T11:55:49.472Z,98348.13
2022-09-24T11:59:04.585Z,98334.16
2022-09-24T12:02:21.459Z,98338.09
2022-09-24T12:05:38.251Z,98337.13
2022-09-24T12:08:55.582Z,98327.25
2022-09-24T12:12:11.755Z,98327.69
2022-09-24T12:15:25.309Z,98329.59
2022-09-24T12:18:44.239Z,98327.50
2022-09-24T12:21:58.365Z,98325.03
2022-09-24T12:25:16.859Z,98320.25
2022-09-24T12:28:41.811Z,98324.44
2022-09-24T12:32:11.961Z,98333.09
2022-09-24T12:35:35.371Z,98339.97
2022-09-24T12:38:49.532Z,98334.44
2022-09-24T12:42:03.930Z,98333.56
2022-09-24T12:45:18.834Z,98325.81
2022-09-24T12:48:30.441Z,98316.88
2022-09-24T12:51:42.147Z,98322.09
2022-09-24T12:54:59.711Z,98319.81
2022-09-24T12:58:30.997Z,98322.47
2022-09-24T13:01:41.367Z,98323.56
2022-09-24T13:05:04.553Z,98327.09
2022-09-24T13:08:38.370Z,98316.78
2022-09-24T13:11:48.425Z,98311.56
2022-09-24T13:15:02.729Z,98319.06
2022-09-24T13:18:24.653Z,98312.25
2022-09-24T13:21:38.218Z,98312.63
2022-09-24T13:24:54.098Z,98316.31
2022-09-24T13:28:38.161Z,98298.03
2022-09-24T13:31:52.674Z,98305.72
2022-09-24T13:35:07.488Z,98295.78
2022-09-24T13:38:22.761Z,98298.28
2022-09-24T13:41:43.432Z,98304.97
2022-09-24T13:44:56.728Z,98304.91
2022-09-24T13:48:19.335Z,98300.50
2022-09-24T13:51:32.613Z,98307.97
2022-09-24T13:54:52.232Z,98308.03
2022-09-24T13:58:03.642Z,98306.22
2022-09-24T14:01:17.512Z,98301.44
2022-09-24T14:04:28.208Z,98298.72
2022-09-24T14:07:38.381Z,98304.94
2022-09-24T14:10:49.080Z,98303.66
2022-09-24T14:14:12.376Z,98306.84
2022-09-24T14:17:24.697Z,98302.56
2022-09-24T14:20:36.979Z,98300.63
2022-09-24T14:23:54.983Z,98302.34
2022-09-24T14:27:08.645Z,98297.84
2022-09-24T14:30:23.296Z,98293.28
2022-09-24T14:33:34.746Z,98290.75
2022-09-24T14:36:44.869Z,98291.09
2022-09-24T14:40:02.648Z,98292.94
2022-09-24T14:43:18.832Z,98290.47
2022-09-24T14:46:33.053Z,98287.88
2022-09-24T14:49:45.581Z,98282.94
2022-09-24T14:52:57.956Z,98287.50
2022-09-24T14:56:21.271Z,98281.44
2022-09-24T14:59:32.962Z,98277.38
2022-09-24T15:02:44.493Z,98287.28
2022-09-24T15:06:04.693Z,98282.75
2022-09-24T15:09:25.104Z,98284.53
2022-09-24T15:12:37.991Z,98275.25
2022-09-24T15:15:48.498Z,98276.19
2022-09-24T15:19:14.897Z,98282.03
2022-09-24T15:22:26.852Z,98280.38
2022-09-24T15:25:37.346Z,98284.09
2022-09-24T15:28:48.273Z,98284.22
2022-09-24T15:31:59.448Z,98286.06
2022-09-24T15:35:15.048Z,98281.56
2022-09-24T15:38:27.992Z,98276.34
2022-09-24T15:41:38.037Z,98280.69
2022-09-24T15:44:50.844Z,98279.53
2022-09-24T15:48:00.922Z,98278.13
2022-09-24T15:51:22.942Z,98277.91
2022-09-24T15:54:33.113Z,98271.56
2022-09-24T15:57:43.361Z,98277.47
2022-09-24T16:00:54.491Z,98273.78
2022-09-24T16:04:04.574Z,98268.53
2022-09-24T16:07:16.018Z,98275.38
2022-09-24T16:10:26.383Z,98276.81
2022-09-24T16:13:36.493Z,98286.75
2022-09-24T16:16:46.828Z,98283.75
2022-09-24T16:19:57.046Z,98290.56
2022-09-24T16:23:14.083Z,98297.06
2022-09-24T16:26:24.627Z,98295.63
2022-09-24T16:29:34.811Z,98298.91
2022-09-24T16:32:45.599Z,98294.34
2022-09-24T16:35:55.783Z,98303.38
2022-09-24T16:39:07.158Z,98307.25
2022-09-24T16:42:17.369Z,98306.56
2022-09-24T16:45:27.530Z,98313.16
2022-09-24T16:48:38.205Z,98320.50
2022-09-24T16:51:48.307Z,98329.53
2022-09-24T16:55:02.078Z,98326.53
2022-09-24T16:58:12.156Z,98327.09
2022-09-24T17:01:22.936Z,98329.09
2022-09-24T17:04:34.464Z,98340.13
2022-09-24T17:07:44.730Z,98337.19
2022-09-24T17:11:00.263Z,98335.91
2022-09-24T17:14:12.465Z,98343.38
2022-09-24T17:17:30.032Z,98341.38
2022-09-24T17:20:40.173Z,98338.78
2022-09-24T17:23:51.758Z,98337.63
2022-09-24T17:27:03.187Z,98339.13
2022-09-24T17:30:13.842Z,98343.25
2022-09-24T17:33:42.409Z,98349.13
2022-09-24T17:36:56.709Z,98351.53
2022-09-24T17:40:09.590Z,98350.66
2022-09-24T17:43:23.562Z,98358.34
2022-09-24T17:46:36.004Z,98354.66
2022-09-24T17:49:46.776Z,98356.28
2022-09-24T17:52:57.164Z,98357.19
2022-09-24T17:56:09.149Z,98356.75
2022-09-24T17:59:26.238Z,98364.31
2022-09-24T18:02:37.114Z,98358.88
2022-09-24T18:05:47.903Z,98357.97
2022-09-24T18:09:00.344Z,98370.63
2022-09-24T18:12:16.352Z,98385.69
2022-09-24T18:15:29.438Z,98378.44
2022-09-24T18:18:40.540Z,98379.19
2022-09-24T18:21:51.342Z,98381.69
2022-09-24T18:25:06.140Z,98389.38
2022-09-24T18:28:18.699Z,98384.78
2022-09-24T18:31:31.820Z,98380.78
2022-09-24T18:34:41.915Z,98390.06
2022-09-24T18:37:52.096Z,98390.78
2022-09-24T18:41:07.827Z,98394.84
2022-09-24T18:44:20.106Z,98401.25
2022-09-24T18:47:31.711Z,98401.16
2022-09-24T18:50:44.648Z,98398.28
2022-09-24T18:53:57.017Z,98396.34
2022-09-24T18:57:07.177Z,98401.34
2022-09-24T19:00:31.686Z,98404.63
2022-09-24T19:03:43.881Z,98403.53
2022-09-24T19:06:56.806Z,98396.50
2022-09-24T19:10:09.304Z,98403.13
2022-09-24T19:13:25.439Z,98407.97
2022-09-24T19:16:36.547Z,98404.09
2022-09-24T19:19:52.423Z,98397.56
2022-09-24T19:23:03.065Z,98399.19
2022-09-24T19:26:14.663Z,98405.19
2022-09-24T19:29:28.200Z,98400.97
2022-09-24T19:32:40.027Z,98400.00
2022-09-24T19:35:57.867Z,98404.53
2022-09-24T19:39:08.537Z,98410.34
2022-09-24T19:42:18.712Z,98403.06
2022-09-24T19:45:29.766Z,98408.63
2022-09-24T19:48:41.798Z,98412.66
2022-09-24T19:51:53.177Z,98415.75
2022-09-24T19:55:03.321Z,98415.75
2022-09-24T19:58:13.735Z,98420.13
2022-09-24T20:01:26.246Z,98423.69
2022-09-24T20:04:36.350Z,98427.06
2022-09-24T20:07:47.818Z,98426.91
2022-09-24T20:11:03.248Z,98426.19
2022-09-24T20:14:13.861Z,98427.06
2022-09-24T20:17:29.871Z,98430.47
2022-09-24T20:20:42.969Z,98423.50
2022-09-24T20:23:56.051Z,98429.66
2022-09-24T20:27:17.531Z,98427.72
2022-09-24T20:30:27.828Z,98430.94
2022-09-24T20:33:38.570Z,98430.69
2022-09-24T20:36:48.979Z,98437.53
2022-09-24T20:40:00.429Z,98431.41
2022-09-24T20:43:10.592Z,98436.56
2022-09-24T20:46:24.205Z,98444.84
2022-09-24T20:49:35.086Z,98436.06
2022-09-24T20:52:45.382Z,98433.47
2022-09-24T20:55:57.492Z,98437.47
2022-09-24T20:59:08.274Z,98445.13
2022-09-24T21:02:19.536Z,98442.28
2022-09-24T21:05:32.293Z,98439.09
2022-09-24T21:08:44.227Z,98447.78
2022-09-24T21:11:55.687Z,98435.69
2022-09-24T21:15:09.354Z,98439.25
2022-09-24T21:18:23.074Z,98442.81
2022-09-24T21:21:39.369Z,98441.00
2022-09-24T21:24:52.290Z,98442.63
2022-09-24T21:28:05.171Z,98444.31
2022-09-24T21:31:16.568Z,98440.84
2022-09-24T21:34:28.374Z,98443.44
2022-09-24T21:37:38.746Z,98444.25
2022-09-24T21:40:53.770Z,98439.09
2022-09-24T21:44:06.468Z,98425.22
2022-09-24T21:47:16.567Z,98431.81
2022-09-24T21:50:27.897Z,98433.41
2022-09-24T21:53:39.007Z,98436.97
2022-09-24T21:56:49.530Z,98443.06
2022-09-24T22:00:01.416Z,98445.50
2022-09-24T22:03:13.287Z,98439.34
2022-09-24T22:06:24.433Z,98436.44
2022-09-24T22:09:34.984Z,98441.34
2022-09-24T22:12:46.916Z,98437.06
2022-09-24T22:15:59.827Z,98434.47
2022-09-24T22:19:10.336Z,98436.09
2022-09-24T22:22:21.064Z,98434.28
2022-09-24T22:25:31.388Z,98440.09
2022-09-24T22:28:42.856Z,98433.06
